Time;durP1;ratioP1;P1;durP2;ratioP2;P2;SDS_P1;SDS_P2;PMS_P1;PMS_P2;Temp;Humidity;BMP_temperature;BMP_pressure;BME280_temperature;BME280_humidity;BME280_pressure;Samples;Min_cycle;Max_cycle;Signal;HPM_P1;HPM_P2
2022/07/07 06:14:32;;;;;;;5.45;1.35;;;;;;;16.76;52.81;97037.97;2082555;28;20563;-64
2022/07/07 06:15:35;;;;;;;4.15;1.48;;;;;;;16.94;52.77;97037.78;2078379;28;20644;-65
2022/07/07 06:16:40;;;;;;;5.30;1.60;;;;;;;17.03;52.74;97044.25;2076621;28;20189;-65
2022/07/07 06:17:42;;;;;;;6.38;1.55;;;;;;;17.10;52.08;97048.19;2069948;28;20202;-65
2022/07/07 06:19:10;;;;;;;4.47;1.38;;;;;;;17.05;52.19;97029.16;2070310;28;20669;-65
2022/07/07 06:20:12;;;;;;;7.28;1.25;;;;;;;17.19;52.72;97038.81;2070287;28;20209;-65
2022/07/07 06:21:14;;;;;;;5.60;1.25;;;;;;;17.23;52.03;97037.66;2069540;28;20217;-65
2022/07/07 06:22:15;;;;;;;5.72;1.50;;;;;;;17.10;52.13;97035.84;2069255;28;20220;-64
2022/07/07 06:23:16;;;;;;;6.35;1.33;;;;;;;17.25;52.11;97036.63;2069729;28;20198;-65
2022/07/07 06:24:18;;;;;;;9.88;1.45;;;;;;;17.27;51.71;97034.75;2070493;28;20206;-65
2022/07/07 06:25:20;;;;;;;10.38;4.30;;;;;;;17.56;52.10;97028.47;2070309;28;20208;-64
2022/07/07 06:48:12;;;;;;;5.15;1.60;;;;;;;18.06;48.41;97018.94;2083123;28;20557;-67
2022/07/07 06:49:14;;;;;;;10.85;1.45;;;;;;;18.19;48.55;97020.72;2079456;28;20197;-65
2022/07/07 06:50:15;;;;;;;4.00;1.30;;;;;;;18.16;48.31;97021.78;2081959;28;20197;-65
2022/07/07 06:51:17;;;;;;;5.43;1.20;;;;;;;18.18;48.45;97016.41;2084073;28;20188;-65
2022/07/07 06:52:18;;;;;;;8.35;1.70;;;;;;;18.03;48.55;97031.50;2077468;28;20603;-65
2022/07/07 06:53:20;;;;;;;13.45;1.70;;;;;;;18.03;48.46;97029.72;2075697;28;20205;-65
2022/07/07 06:54:22;;;;;;;12.32;1.85;;;;;;;17.90;48.68;97031.47;2075425;28;20835;-65
2022/07/07 06:55:24;;;;;;;6.10;1.60;;;;;;;17.99;48.77;97033.53;2075723;28;20198;-65
2022/07/07 06:56:25;;;;;;;4.03;1.42;;;;;;;17.92;48.65;97026.94;2070461;28;20202;-65
2022/07/07 06:57:27;;;;;;;8.93;1.63;;;;;;;17.99;48.91;97028.25;2070920;28;20225;-66
2022/07/07 06:58:28;;;;;;;6.50;1.25;;;;;;;18.08;48.64;97035.53;2072876;28;20197;-66
2022/07/07 06:59:30;;;;;;;9.32;2.25;;;;;;;18.03;48.52;97021.81;2074775;28;20679;-65
2022/07/07 07:00:31;;;;;;;6.40;1.30;;;;;;;18.19;48.29;97026.00;2073233;28;20204;-66
2022/07/07 07:01:33;;;;;;;5.57;1.60;;;;;;;18.28;48.22;97028.88;2072991;28;20832;-65
2022/07/07 07:02:42;;;;;;;6.70;1.85;;;;;;;18.29;47.93;97032.34;2073400;28;20197;-66
2022/07/07 07:03:43;;;;;;;13.00;1.75;;;;;;;18.46;48.44;97040.91;2072781;28;20213;-67
2022/07/07 07:21:02;;;;;;;4.40;1.30;;;;;;;18.53;47.90;97037.72;2083722;28;21076;-67
2022/07/07 07:22:04;;;;;;;11.88;2.22;;;;;;;18.53;48.38;97039.53;2073588;28;20228;-67
2022/07/07 07:23:06;;;;;;;12.48;1.77;;;;;;;18.61;48.33;97037.16;2070509;28;20200;-68
2022/07/07 07:24:07;;;;;;;4.45;1.63;;;;;;;18.59;48.53;97039.91;2070359;28;20236;-68
2022/07/07 07:25:09;;;;;;;10.20;1.77;;;;;;;18.50;48.15;97051.16;2070710;28;20319;-67
2022/07/07 07:26:11;;;;;;;6.60;1.60;;;;;;;18.41;48.92;97049.13;2069823;28;20205;-67
2022/07/07 07:27:13;;;;;;;4.05;1.60;;;;;;;18.51;48.84;97046.69;2069181;28;20213;-68
2022/07/07 07:28:14;;;;;;;8.30;1.70;;;;;;;18.71;48.83;97053.22;2070388;28;20198;-68
2022/07/07 07:29:16;;;;;;;4.18;1.38;;;;;;;18.87;48.11;97045.06;2070455;28;20276;-68
2022/07/07 07:30:17;;;;;;;5.75;1.40;;;;;;;18.74;47.96;97050.34;2070455;28;20201;-68
2022/07/07 07:31:19;;;;;;;3.97;1.48;;;;;;;18.69;48.17;97047.19;2070435;28;20578;-68
2022/07/07 07:32:20;;;;;;;12.35;1.80;;;;;;;18.70;48.29;97044.47;2069357;28;20291;-67
2022/07/07 07:33:22;;;;;;;14.63;1.70;;;;;;;18.62;48.35;97052.09;2070546;28;20340;-68
2022/07/07 07:34:24;;;;;;;3.20;1.23;;;;;;;18.46;48.55;97049.66;2070700;28;20243;-67
2022/07/07 07:35:25;;;;;;;3.28;1.30;;;;;;;18.50;48.44;97051.16;2070423;28;20194;-67
2022/07/07 07:36:27;;;;;;;5.40;1.55;;;;;;;18.41;49.14;97052.66;2069752;28;20201;-67
2022/07/07 07:37:28;;;;;;;10.50;1.90;;;;;;;18.49;48.99;97059.22;2069373;28;20273;-67
2022/07/07 07:38:30;;;;;;;5.72;1.75;;;;;;;18.32;48.94;97057.72;2070357;28;20201;-67
2022/07/07 07:39:31;;;;;;;3.95;1.75;;;;;;;18.24;49.25;97053.81;2070423;28;20690;-67
2022/07/07 07:40:33;;;;;;;5.88;1.65;;;;;;;18.34;49.18;97059.31;2070393;28;20719;-67
2022/07/07 07:41:34;;;;;;;7.97;2.00;;;;;;;18.35;49.65;97062.81;2069751;28;20202;-67
2022/07/07 07:42:37;;;;;;;5.40;1.75;;;;;;;18.33;49.81;97065.53;2070366;28;20198;-68
2022/07/07 08:26:48;;;;;;;7.43;2.45;;;;;;;17.80;54.32;97084.06;2084293;28;20567;-63
2022/07/07 08:27:50;;;;;;;5.90;2.30;;;;;;;18.14;53.95;97078.34;2078702;28;20200;-64
2022/07/07 08:28:52;;;;;;;6.45;2.15;;;;;;;18.51;53.13;97078.44;2078838;28;20714;-63
2022/07/07 08:29:53;;;;;;;4.88;2.70;;;;;;;18.84;51.95;97071.72;2078673;28;20228;-63
2022/07/07 08:30:55;;;;;;;8.05;3.60;;;;;;;18.56;52.70;97065.72;2078684;28;20193;-66
2022/07/07 08:31:57;;;;;;;10.68;3.20;;;;;;;18.90;52.23;97060.72;2077784;28;20274;-66
2022/07/07 08:32:59;;;;;;;7.43;3.28;;;;;;;19.21;51.85;97062.00;2078766;28;20219;-66
2022/07/07 08:34:00;;;;;;;7.35;3.00;;;;;;;19.69;50.81;97055.81;2078752;28;20193;-66
2022/07/07 08:35:02;;;;;;;8.48;3.03;;;;;;;19.51;50.87;97071.28;2078715;28;20227;-65
2022/07/07 08:36:04;;;;;;;10.30;3.05;;;;;;;19.78;50.36;97062.22;2078781;28;20215;-66
2022/07/07 08:37:05;;;;;;;10.10;2.53;;;;;;;20.18;49.75;97066.31;2078155;28;20236;-66
2022/07/07 08:38:07;;;;;;;7.13;3.30;;;;;;;20.42;49.23;97052.09;2078744;28;20962;-66
2022/07/07 08:39:08;;;;;;;7.45;2.63;;;;;;;20.19;49.45;97060.91;2078426;28;20200;-65
2022/07/07 08:40:10;;;;;;;11.43;3.33;;;;;;;20.17;49.78;97067.28;2078468;28;20653;-66
2022/07/07 08:41:15;;;;;;;13.77;6.15;;;;;;;20.03;49.46;97073.66;2077934;28;20710;-65
2022/07/07 08:42:17;;;;;;;7.47;4.35;;;;;;;19.81;50.15;97074.41;2077596;28;20224;-65
2022/07/07 08:43:19;;;;;;;8.38;3.80;;;;;;;19.37;51.27;97068.81;2076629;28;20200;-65
2022/07/07 08:44:20;;;;;;;9.07;3.53;;;;;;;19.38;51.72;97066.03;2080790;28;20201;-65
2022/07/07 08:45:22;;;;;;;7.07;4.47;;;;;;;19.65;51.91;97074.72;2078553;28;20213;-66
2022/07/07 08:46:24;;;;;;;7.90;4.03;;;;;;;19.49;51.71;97075.84;2078587;28;20219;-66
2022/07/07 08:47:25;;;;;;;7.07;4.10;;;;;;;18.91;52.61;97073.84;2078060;28;20281;-66
2022/07/07 08:48:27;;;;;;;6.57;3.25;;;;;;;18.83;53.50;97073.53;2078631;28;20239;-65
2022/07/07 08:49:29;;;;;;;9.23;3.35;;;;;;;18.96;53.49;97077.94;2078180;28;20205;-65
2022/07/07 08:50:31;;;;;;;11.82;4.47;;;;;;;19.03;53.09;97066.84;2078653;28;21080;-65
2022/07/07 08:51:33;;;;;;;8.57;3.17;;;;;;;19.04;53.00;97062.38;2077899;28;20200;-65
2022/07/07 08:52:34;;;;;;;9.40;2.80;;;;;;;19.30;52.91;97078.16;2070393;28;20202;-66
2022/07/07 08:53:38;;;;;;;10.85;4.10;;;;;;;19.04;52.87;97063.22;2070157;28;20607;-65
2022/07/07 08:54:42;;;;;;;7.90;3.00;;;;;;;18.88;53.59;97070.53;2069884;28;20255;-67
2022/07/07 08:55:47;;;;;;;7.95;3.03;;;;;;;18.83;53.43;97073.53;2070373;28;20891;-66
2022/07/07 08:56:48;;;;;;;11.38;3.28;;;;;;;18.79;53.47;97061.44;2067434;28;20264;-65
2022/07/07 08:57:54;;;;;;;13.23;3.05;;;;;;;18.74;53.94;97067.09;2070348;28;20205;-66
2022/07/07 08:58:56;;;;;;;8.43;2.92;;;;;;;18.63;54.85;97077.56;2070375;28;20202;-66
2022/07/07 09:00:04;;;;;;;5.82;2.20;;;;;;;18.50;55.69;97066.16;2070356;28;20275;-66
2022/07/07 09:01:06;;;;;;;6.05;2.15;;;;;;;18.52;55.54;97064.25;2070426;28;20684;-66
2022/07/07 09:02:09;;;;;;;4.75;1.88;;;;;;;18.49;55.96;97069.78;2069741;28;20229;-65
2022/07/07 09:03:11;;;;;;;3.17;1.80;;;;;;;18.41;56.42;97073.78;2070139;28;20194;-66
2022/07/07 09:04:12;;;;;;;6.22;1.85;;;;;;;18.41;56.74;97071.16;2070381;28;20241;-66
2022/07/07 09:05:14;;;;;;;7.57;2.05;;;;;;;18.41;56.82;97065.88;2070370;28;20755;-66
2022/07/07 09:06:15;;;;;;;10.52;2.10;;;;;;;18.25;57.65;97059.97;2070129;28;20202;-67
2022/07/07 09:07:44;;;;;;;10.38;2.22;;;;;;;18.19;60.46;97066.50;2069222;28;20704;-66
2022/07/07 09:08:45;;;;;;;3.85;1.98;;;;;;;18.35;59.29;97081.31;2070248;28;20198;-66
2022/07/07 09:09:55;;;;;;;5.40;2.50;;;;;;;18.52;58.88;97085.41;2070243;28;20206;-66
2022/07/07 09:10:57;;;;;;;7.30;2.42;;;;;;;18.53;58.38;97079.19;2069751;28;20201;-66
2022/07/07 09:12:00;;;;;;;6.28;2.47;;;;;;;18.52;58.51;97082.78;2068902;28;20229;-66
2022/07/07 09:13:25;;;;;;;6.13;1.98;;;;;;;18.73;57.93;97083.91;2068850;28;20194;-66
2022/07/07 09:14:38;;;;;;;7.90;2.40;;;;;;;18.51;57.71;97083.72;2068525;28;20288;-66
2022/07/07 09:15:39;;;;;;;11.75;2.15;;;;;;;18.52;57.98;97085.41;2069817;28;20220;-66
2022/07/07 09:16:42;;;;;;;7.00;2.60;;;;;;;18.43;57.97;97082.44;2069759;28;20197;-67
2022/07/07 09:17:43;;;;;;;7.03;2.63;;;;;;;18.16;58.65;97085.22;2070314;28;20194;-66
2022/07/07 09:18:46;;;;;;;10.75;3.25;;;;;;;17.91;58.97;97083.38;2070217;28;20209;-66
2022/07/07 09:20:03;;;;;;;7.97;3.30;;;;;;;17.63;59.98;97082.56;2070069;28;20202;-66
2022/07/07 09:45:21;;;;;;;5.50;2.47;;;;;;;18.39;58.67;97078.34;2090998;28;20905;-64
2022/07/07 09:46:24;;;;;;;7.68;2.13;;;;;;;18.37;58.53;97088.19;2086744;28;20246;-66
2022/07/07 09:47:27;;;;;;;4.45;2.85;;;;;;;18.32;58.41;97077.09;2086526;28;20248;-66
2022/07/07 09:48:29;;;;;;;11.18;2.80;;;;;;;18.36;58.49;97088.28;2081970;28;21027;-66
2022/07/07 09:49:30;;;;;;;7.53;2.38;;;;;;;18.50;58.57;97087.31;2083528;28;20196;-66
2022/07/07 09:50:32;;;;;;;7.10;2.15;;;;;;;18.73;57.86;97075.13;2086881;28;20188;-66
2022/07/07 09:51:33;;;;;;;6.25;2.30;;;;;;;18.57;57.91;97085.94;2086457;28;20232;-65
2022/07/07 09:52:37;;;;;;;7.50;3.13;;;;;;;18.38;58.19;97086.38;2086963;28;20200;-66
2022/07/07 09:54:07;;;;;;;7.47;2.25;;;;;;;18.54;57.95;97088.81;2086727;28;20278;-66
2022/07/07 09:55:11;;;;;;;11.27;2.33;;;;;;;18.59;57.67;97084.03;2085923;28;20555;-66
2022/07/07 09:56:12;;;;;;;5.03;2.50;;;;;;;18.87;56.70;97077.63;2086879;28;20254;-65
2022/07/07 09:57:15;;;;;;;4.40;1.90;;;;;;;19.12;56.42;97075.06;2085664;28;20216;-65
2022/07/07 09:58:16;;;;;;;4.65;2.10;;;;;;;19.20;56.30;97078.00;2086121;28;20203;-66
2022/07/07 09:59:21;;;;;;;6.72;2.30;;;;;;;19.33;55.95;97080.59;2086957;28;20620;-66
2022/07/07 10:00:23;;;;;;;5.82;2.78;;;;;;;19.52;55.10;97080.91;2086808;28;20203;-66
2022/07/07 10:01:27;;;;;;;5.30;1.83;;;;;;;19.78;54.77;97082.56;2086750;28;20818;-66
2022/07/07 10:02:29;;;;;;;12.95;2.22;;;;;;;19.91;54.30;97086.03;2084819;28;20623;-66
2022/07/07 10:03:31;;;;;;;5.30;2.50;;;;;;;20.02;52.81;97085.19;2086850;28;20201;-66
2022/07/07 10:04:36;;;;;;;4.85;1.67;;;;;;;20.13;52.99;97076.44;2086149;28;20193;-67
2022/07/07 10:05:38;;;;;;;6.15;1.52;;;;;;;20.09;52.66;97075.81;2085069;28;20518;-66
2022/07/07 10:06:42;;;;;;;5.95;2.05;;;;;;;19.86;53.04;97074.94;2086288;28;20845;-66
2022/07/07 10:07:50;;;;;;;4.63;2.20;;;;;;;20.06;52.49;97087.50;2086759;28;20196;-66
2022/07/07 10:08:56;;;;;;;4.45;1.98;;;;;;;20.29;52.75;97084.91;2085742;28;20196;-66
2022/07/07 10:10:04;;;;;;;5.32;1.73;;;;;;;20.38;52.82;97081.53;2085121;28;20559;-66
2022/07/07 10:11:09;;;;;;;7.15;1.88;;;;;;;20.15;52.86;97082.44;2086008;28;20196;-66
2022/07/07 10:12:13;;;;;;;3.55;1.58;;;;;;;20.20;52.99;97086.47;2086200;28;20224;-64
2022/07/07 10:13:15;;;;;;;5.13;1.92;;;;;;;20.02;52.24;97087.84;2085808;28;20718;-65
2022/07/07 10:14:21;;;;;;;9.20;1.70;;;;;;;19.90;52.77;97098.41;2086631;28;20189;-64
2022/07/07 10:15:23;;;;;;;4.40;1.55;;;;;;;19.58;53.62;97082.28;2085928;28;20188;-64
2022/07/07 10:16:25;;;;;;;6.57;2.20;;;;;;;19.21;54.42;97092.91;2086618;28;20921;-64
2022/07/07 10:17:28;;;;;;;4.25;1.95;;;;;;;19.04;55.03;97091.47;2086150;28;20220;-64
2022/07/07 10:18:29;;;;;;;5.13;1.70;;;;;;;19.07;54.51;97091.25;2086300;28;20208;-64
2022/07/07 10:19:31;;;;;;;10.98;1.80;;;;;;;19.06;55.29;97092.22;2086730;28;20192;-64
2022/07/07 10:20:32;;;;;;;2.90;1.30;;;;;;;19.13;55.04;97095.28;2086681;28;20196;-65
2022/07/07 10:21:34;;;;;;;6.25;1.77;;;;;;;18.99;55.60;97102.38;2086136;28;20200;-64
2022/07/07 10:37:42;;;;;;;4.18;1.40;;;;;;;18.76;56.80;97091.59;2082197;28;20874;-66
2022/07/07 10:38:45;;;;;;;10.70;2.03;;;;;;;18.80;57.01;97096.69;2078606;28;20564;-65
2022/07/07 10:39:49;;;;;;;3.42;1.55;;;;;;;18.81;56.47;97093.09;2078163;28;20747;-66
2022/07/07 10:40:52;;;;;;;4.65;1.80;;;;;;;18.66;56.94;97093.22;2077733;28;20201;-66
2022/07/07 10:42:02;;;;;;;7.55;1.80;;;;;;;18.83;56.91;97084.09;2075009;28;20225;-66
2022/07/07 10:43:24;;;;;;;5.40;1.95;;;;;;;18.96;56.63;97086.75;2069840;28;20324;-66
2022/07/07 10:58:54;;;;;;;4.78;1.40;;;;;;;18.99;55.46;97105.03;2085617;28;20887;-64
2022/07/07 10:59:56;;;;;;;7.15;2.03;;;;;;;19.23;55.37;97110.34;2077129;28;20200;-64
2022/07/07 11:01:08;;;;;;;6.95;1.67;;;;;;;19.24;54.88;97113.88;2078246;28;20197;-64
2022/07/07 11:02:10;;;;;;;5.10;1.80;;;;;;;19.14;54.62;97110.19;2074885;28;20271;-64
2022/07/07 11:03:13;;;;;;;5.15;1.60;;;;;;;19.18;54.67;97101.06;2074263;28;20201;-65
2022/07/07 11:04:45;;;;;;;8.27;1.95;;;;;;;19.35;54.13;97102.47;2075098;28;20204;-64
2022/07/07 11:05:47;;;;;;;5.28;1.70;;;;;;;19.35;54.10;97108.63;2073086;28;20755;-64
2022/07/07 11:07:09;;;;;;;6.30;2.00;;;;;;;19.24;54.06;97106.75;2075960;28;20198;-64
2022/07/07 11:08:12;;;;;;;6.20;2.28;;;;;;;19.41;53.74;97102.03;2073943;28;20196;-65
2022/07/07 11:09:22;;;;;;;15.30;8.25;;;;;;;19.47;53.51;97098.09;2074728;28;20197;-67
2022/07/07 11:10:36;;;;;;;15.23;5.63;;;;;;;19.52;53.29;97104.75;2075569;28;20201;-65
2022/07/07 11:11:37;;;;;;;5.95;2.72;;;;;;;19.25;53.61;97107.63;2071968;28;20296;-66
2022/07/07 11:12:41;;;;;;;8.45;2.20;;;;;;;19.45;53.76;97098.19;2071275;28;20234;-66
2022/07/07 11:13:43;;;;;;;4.50;1.92;;;;;;;19.55;53.28;97115.13;2073836;28;20205;-66
2022/07/07 11:14:45;;;;;;;7.13;1.75;;;;;;;19.62;53.18;97112.00;2074025;28;20201;-65
2022/07/07 11:16:11;;;;;;;10.38;2.80;;;;;;;19.53;53.23;97109.09;2074847;28;20196;-66
2022/07/07 11:17:21;;;;;;;3.90;1.73;;;;;;;19.30;53.73;97108.13;2069686;28;20251;-66
2022/07/07 11:35:36;;;;;;;6.82;2.38;;;;;;;19.51;53.43;97115.47;2090425;27;21066;-65
2022/07/07 11:36:37;;;;;;;11.43;3.13;;;;;;;19.68;52.84;97104.47;2080335;28;20196;-65
2022/07/07 11:37:42;;;;;;;7.20;2.33;;;;;;;19.53;53.15;97106.44;2066052;28;20700;-65
2022/07/07 11:38:56;;;;;;;4.32;1.58;;;;;;;19.73;53.13;97112.91;2084871;28;20196;-67
2022/07/07 11:39:57;;;;;;;13.52;1.90;;;;;;;19.97;53.00;97104.13;2080592;28;20193;-67
2022/07/07 11:40:59;;;;;;;6.75;1.90;;;;;;;20.09;52.67;97106.78;2067616;28;20574;-67
2022/07/07 11:42:05;;;;;;;6.55;2.05;;;;;;;20.17;51.93;97110.53;2066175;28;20225;-68
2022/07/07 11:43:19;;;;;;;10.65;2.20;;;;;;;20.01;52.01;97107.34;2068142;28;20201;-68
2022/07/07 11:44:21;;;;;;;3.55;1.58;;;;;;;19.74;52.49;97114.59;2068093;28;20192;-67
2022/07/07 11:45:25;;;;;;;7.95;2.40;;;;;;;19.74;52.24;97108.44;2070013;28;20189;-67
2022/07/07 11:46:26;;;;;;;6.15;1.90;;;;;;;19.49;52.53;97112.94;2068072;28;20296;-67
2022/07/07 11:47:34;;;;;;;11.13;2.40;;;;;;;19.49;52.69;97107.63;2067571;28;20214;-67
2022/07/07 11:48:38;;;;;;;5.15;2.00;;;;;;;19.23;52.74;97083.88;2067277;28;20203;-67
2022/07/07 11:49:40;;;;;;;5.43;1.58;;;;;;;19.29;53.66;97117.03;2066996;28;20198;-67
2022/07/07 11:50:42;;;;;;;7.60;2.40;;;;;;;19.41;53.00;97102.03;2068243;28;20221;-67
2022/07/07 11:51:45;;;;;;;3.70;1.63;;;;;;;19.35;52.79;97113.94;2069086;28;20772;-67
2022/07/07 11:52:48;;;;;;;7.57;1.98;;;;;;;19.30;53.11;97105.50;2068005;28;20443;-67
2022/07/07 11:54:00;;;;;;;8.07;2.00;;;;;;;19.51;53.05;97108.34;2068152;28;20255;-67
2022/07/07 11:55:05;;;;;;;6.43;1.70;;;;;;;19.58;52.95;97114.06;2067192;28;20215;-67
2022/07/07 11:56:06;;;;;;;4.97;1.75;;;;;;;19.40;53.01;97110.94;2067497;28;20198;-67
2022/07/07 11:57:08;;;;;;;8.93;2.03;;;;;;;19.44;53.09;97107.13;2068392;28;20225;-67
2022/07/07 11:58:11;;;;;;;4.72;1.90;;;;;;;19.53;53.20;97103.78;2068878;28;20200;-67
2022/07/07 11:59:13;;;;;;;6.28;1.70;;;;;;;19.65;52.98;97109.97;2067989;28;20599;-67
2022/07/07 12:00:17;;;;;;;6.20;2.35;;;;;;;19.54;53.21;97121.38;2067290;28;20194;-67
2022/07/07 12:24:03;;;;;;;11.40;2.22;;;;;;;18.91;55.47;97126.75;2092838;27;21065;-64
2022/07/07 12:25:09;;;;;;;5.75;2.15;;;;;;;18.96;55.13;97123.78;2089041;28;20555;-65
2022/07/07 12:26:42;;;;;;;8.50;2.13;;;;;;;18.74;55.95;97116.47;2088154;28;20663;-67
2022/07/07 12:27:57;;;;;;;6.00;2.03;;;;;;;18.85;55.72;97121.03;2070488;28;20201;-67
2022/07/07 12:28:59;;;;;;;7.57;2.10;;;;;;;18.86;55.98;97118.25;2075499;28;20189;-67
2022/07/07 12:30:04;;;;;;;6.03;2.03;;;;;;;18.83;56.10;97126.44;2070868;28;20208;-67
2022/07/07 12:31:07;;;;;;;8.20;1.80;;;;;;;18.81;55.79;97123.03;2073784;28;20194;-67
2022/07/07 12:47:44;;;;;;;8.95;2.10;;;;;;;18.99;55.44;97123.56;2083357;28;20580;-65
2022/07/07 12:48:49;;;;;;;7.15;1.90;;;;;;;19.13;55.24;97127.88;2084244;28;20215;-65
2022/07/07 12:49:55;;;;;;;4.10;2.13;;;;;;;19.14;54.93;97126.09;2089353;28;20195;-65
2022/07/07 12:51:06;;;;;;;8.65;2.10;;;;;;;19.23;55.25;97122.75;2077768;28;20655;-65
2022/07/07 12:52:13;;;;;;;4.15;2.00;;;;;;;19.34;55.27;97117.53;2068830;28;20729;-65
2022/07/07 12:53:15;;;;;;;4.88;2.05;;;;;;;19.33;54.76;97115.00;2068245;28;20193;-65
2022/07/07 12:54:25;;;;;;;7.85;2.00;;;;;;;19.38;54.99;97129.59;2070784;28;20228;-65
2022/07/07 12:55:41;;;;;;;3.83;2.05;;;;;;;19.17;54.25;97115.25;2072138;28;20201;-65
2022/07/07 12:56:43;;;;;;;4.82;1.92;;;;;;;19.06;54.55;97122.19;2071489;28;20201;-65
2022/07/07 12:57:44;;;;;;;11.93;1.80;;;;;;;19.11;54.99;97121.00;2065747;28;20197;-65
2022/07/07 12:58:53;;;;;;;5.63;1.50;;;;;;;19.13;55.09;97121.75;2065688;28;20197;-65
2022/07/07 13:13:20;;;;;;;11.10;2.30;;;;;;;19.46;54.63;97120.25;2084701;28;20553;-65
2022/07/07 13:14:21;;;;;;;5.25;2.05;;;;;;;19.37;54.46;97129.72;2076275;28;20197;-65
2022/07/07 13:15:27;;;;;;;6.45;2.53;;;;;;;19.46;54.73;97136.97;2075142;28;20239;-65
2022/07/07 13:16:28;;;;;;;5.60;1.83;;;;;;;19.37;54.66;97137.66;2081759;28;20189;-65
2022/07/07 13:17:30;;;;;;;5.60;1.73;;;;;;;19.51;54.83;97134.00;2081859;28;20232;-65
2022/07/07 13:18:31;;;;;;;9.00;2.20;;;;;;;19.55;54.50;97136.31;2082352;28;20192;-66
2022/07/07 13:19:34;;;;;;;7.60;1.65;;;;;;;19.80;54.21;97133.66;2075028;28;20725;-67
2022/07/07 13:20:35;;;;;;;6.80;2.05;;;;;;;20.31;53.14;97128.03;2074286;28;20204;-67
2022/07/07 13:21:37;;;;;;;3.63;1.80;;;;;;;20.28;52.59;97136.25;2072472;28;20204;-67
2022/07/07 13:22:41;;;;;;;3.97;1.80;;;;;;;20.49;52.27;97130.25;2073969;28;20198;-67
2022/07/07 13:23:42;;;;;;;5.28;1.80;;;;;;;20.63;52.49;97135.34;2074301;28;20569;-67
2022/07/07 13:24:44;;;;;;;2.88;1.63;;;;;;;20.91;52.06;97133.19;2076222;28;20205;-67
2022/07/07 13:25:45;;;;;;;7.22;2.20;;;;;;;20.90;51.34;97136.81;2075730;28;20218;-66
2022/07/07 13:26:47;;;;;;;6.68;2.40;;;;;;;21.26;51.14;97134.00;2075653;28;20198;-66
2022/07/07 13:27:49;;;;;;;7.15;2.10;;;;;;;21.48;50.79;97141.06;2076433;28;20201;-66
2022/07/07 13:28:50;;;;;;;6.25;2.30;;;;;;;21.20;50.18;97125.56;2076130;28;20197;-66
2022/07/07 13:29:51;;;;;;;5.80;1.92;;;;;;;20.87;51.27;97129.09;2076011;28;20617;-65
2022/07/07 13:30:54;;;;;;;3.65;1.80;;;;;;;20.74;52.03;97128.38;2075229;28;20637;-65
2022/07/07 13:31:56;;;;;;;6.85;2.28;;;;;;;20.80;52.37;97128.72;2074094;28;20317;-65
2022/07/07 13:32:58;;;;;;;8.48;2.00;;;;;;;20.80;51.92;97122.59;2075010;28;20218;-65
2022/07/07 13:34:00;;;;;;;6.43;1.58;;;;;;;20.64;52.08;97123.72;2073549;28;20228;-65
2022/07/07 13:35:02;;;;;;;17.02;2.17;;;;;;;20.73;52.46;97126.69;2075340;28;20565;-65
2022/07/07 13:36:03;;;;;;;9.52;2.17;;;;;;;20.64;52.11;97122.91;2073362;28;20194;-66
2022/07/07 13:37:05;;;;;;;5.25;1.95;;;;;;;20.40;52.86;97129.13;2073162;28;20221;-66
2022/07/07 13:38:07;;;;;;;4.30;1.60;;;;;;;20.33;53.00;97123.47;2074465;28;20570;-66
2022/07/07 14:24:42;;;;;;;8.80;1.65;;;;;;;17.59;71.96;97197.25;2082450;28;20561;-65
2022/07/07 14:25:43;;;;;;;2.75;1.40;;;;;;;17.73;70.85;97199.84;2078414;28;20196;-67
2022/07/07 14:26:46;;;;;;;7.30;1.88;;;;;;;17.93;69.97;97195.06;2076290;28;20835;-67
2022/07/07 14:27:47;;;;;;;14.02;1.83;;;;;;;18.05;70.37;97206.66;2070473;28;20200;-67
2022/07/07 14:28:53;;;;;;;3.80;1.60;;;;;;;18.10;70.23;97197.44;2069172;28;20198;-67
2022/07/07 14:29:54;;;;;;;2.72;1.50;;;;;;;18.14;69.42;97198.09;2070727;28;20285;-68
2022/07/07 14:47:20;;;;;;;3.95;1.60;;;;;;;17.49;69.56;97212.00;2069279;28;20570;-65
2022/07/07 14:48:22;;;;;;;3.15;1.42;;;;;;;17.80;69.72;97216.13;2057429;28;20202;-65
2022/07/07 14:49:23;;;;;;;9.70;2.35;;;;;;;18.03;68.64;97213.81;2056445;28;20203;-66
2022/07/07 14:50:25;;;;;;;4.60;1.60;;;;;;;17.92;69.26;97203.94;2058437;28;20233;-67
2022/07/07 14:51:26;;;;;;;4.28;1.65;;;;;;;17.91;68.33;97218.91;2059086;28;20195;-67
2022/07/07 14:52:28;;;;;;;2.85;1.38;;;;;;;17.92;68.79;97206.56;2054175;28;20597;-67
2022/07/07 15:36:30;;;;;;;2.10;1.00;;;;;;;17.35;65.66;97228.72;2082778;28;20579;-64
2022/07/07 15:37:32;;;;;;;2.13;1.08;;;;;;;17.52;65.48;97232.91;2070444;28;20197;-66
2022/07/07 15:48:11;;;;;;;2.67;1.10;;;;;;;17.64;62.93;97237.41;2085597;28;20879;-66
2022/07/07 15:49:12;;;;;;;2.83;1.10;;;;;;;17.81;63.28;97240.78;2082498;28;20688;-66
2022/07/07 15:50:14;;;;;;;3.08;1.13;;;;;;;17.90;63.17;97246.31;2081767;28;20196;-66
2022/07/07 15:51:17;;;;;;;2.83;1.05;;;;;;;18.10;62.59;97238.91;2083578;28;20192;-66
2022/07/07 15:52:19;;;;;;;4.72;1.42;;;;;;;18.03;62.24;97232.31;2077741;28;20228;-66
2022/07/07 15:53:20;;;;;;;3.15;1.10;;;;;;;18.21;61.71;97240.84;2075745;28;20193;-67
2022/07/07 15:54:22;;;;;;;3.15;1.02;;;;;;;18.11;60.80;97244.06;2073975;28;20206;-65
2022/07/07 16:11:36;;;;;;;5.15;1.55;;;;;;;18.00;58.19;97237.81;2098273;27;20567;-67
2022/07/07 16:12:38;;;;;;;4.05;1.30;;;;;;;18.17;59.04;97255.19;2085476;28;20196;-67
2022/07/07 16:13:39;;;;;;;3.13;1.20;;;;;;;18.21;57.52;97254.91;2078243;28;20200;-67
2022/07/07 16:24:01;;;;;;;4.28;1.20;;;;;;;18.39;56.30;97258.09;2094739;27;20552;-66
2022/07/07 16:25:06;;;;;;;2.55;1.15;;;;;;;18.33;56.29;97258.50;2082020;28;20269;-66
2022/07/07 16:26:07;;;;;;;2.42;1.20;;;;;;;18.54;56.16;97258.88;2076881;28;20198;-67
2022/07/07 16:27:09;;;;;;;5.43;1.23;;;;;;;18.51;56.05;97255.59;2074802;28;20244;-67
2022/07/07 16:28:10;;;;;;;2.15;1.20;;;;;;;18.41;56.03;97245.66;2072616;28;20202;-67
2022/07/07 16:29:12;;;;;;;3.28;1.10;;;;;;;18.37;56.17;97259.16;2068639;28;20197;-67
2022/07/07 16:30:15;;;;;;;2.42;1.08;;;;;;;18.66;55.60;97251.06;2072188;28;20217;-67
2022/07/07 16:31:17;;;;;;;4.65;1.27;;;;;;;18.79;55.59;97259.84;2071241;28;20201;-67
2022/07/07 16:32:18;;;;;;;4.65;1.77;;;;;;;18.95;54.99;97253.56;2071722;28;20263;-67
2022/07/07 16:33:20;;;;;;;3.92;1.30;;;;;;;19.15;55.36;97255.66;2073960;28;20838;-67
2022/07/07 16:34:22;;;;;;;2.45;1.20;;;;;;;18.90;55.14;97246.75;2067220;28;20203;-67
2022/07/07 16:35:23;;;;;;;4.75;1.40;;;;;;;18.93;54.84;97251.88;2066099;28;20204;-67
